createdAt,value
2022-09-20T00:01:23.594Z,99.90
2022-09-20T00:03:53.931Z,99.90
2022-09-20T00:06:21.692Z,99.90
2022-09-20T00:08:48.925Z,99.90
2022-09-20T00:11:19.992Z,99.90
2022-09-20T00:13:47.241Z,99.90
2022-09-20T00:16:15.072Z,99.90
2022-09-20T00:18:42.005Z,99.90
2022-09-20T00:21:12.515Z,99.90
2022-09-20T00:23:39.240Z,99.90
2022-09-20T00:26:06.081Z,99.90
2022-09-20T00:28:34.641Z,99.90
2022-09-20T00:31:01.401Z,99.90
2022-09-20T00:33:46.987Z,99.90
2022-09-20T00:36:13.725Z,99.90
2022-09-20T00:38:40.546Z,99.90
2022-09-20T00:41:07.365Z,99.90
2022-09-20T00:43:37.195Z,99.90
2022-09-20T00:46:04.022Z,99.90
2022-09-20T00:48:30.786Z,99.90
2022-09-20T00:50:59.581Z,99.90
2022-09-20T00:53:30.156Z,99.90
2022-09-20T00:56:01.451Z,99.90
2022-09-20T00:58:28.492Z,99.90
2022-09-20T01:00:55.702Z,99.90
2022-09-20T01:03:22.919Z,99.90
2022-09-20T01:05:53.064Z,99.90
2022-09-20T01:08:20.020Z,99.90
2022-09-20T01:10:47.194Z,99.90
2022-09-20T01:13:13.924Z,99.90
2022-09-20T01:15:40.709Z,99.90
2022-09-20T01:18:07.461Z,99.90
2022-09-20T01:20:36.018Z,99.90
2022-09-20T01:23:21.066Z,99.90
2022-09-20T01:26:06.198Z,99.90
2022-09-20T01:28:32.996Z,99.90
2022-09-20T01:31:11.739Z,99.90
2022-09-20T01:33:46.365Z,99.90
2022-09-20T01:36:14.310Z,99.90
2022-09-20T01:38:41.071Z,99.90
2022-09-20T01:41:11.201Z,99.90
2022-09-20T01:43:41.804Z,99.90
2022-09-20T01:46:16.772Z,99.90
2022-09-20T01:48:43.575Z,99.90
2022-09-20T01:51:16.278Z,99.90
2022-09-20T01:53:54.778Z,99.90
2022-09-20T01:56:36.717Z,99.90
2022-09-20T01:59:24.608Z,99.90
2022-09-20T02:02:07.103Z,99.90
2022-09-20T02:04:33.926Z,99.90
2022-09-20T02:07:00.642Z,99.90
2022-09-20T02:10:03.079Z,99.90
2022-09-20T02:13:01.833Z,99.90
2022-09-20T02:15:34.093Z,99.90
2022-09-20T02:18:04.169Z,99.90
2022-09-20T02:20:37.102Z,99.90
2022-09-20T02:23:03.879Z,99.90
2022-09-20T02:25:33.451Z,99.90
2022-09-20T02:28:03.221Z,99.90
2022-09-20T02:30:53.302Z,99.90
2022-09-20T02:33:55.904Z,99.90
2022-09-20T02:36:22.639Z,99.90
2022-09-20T02:39:08.086Z,99.90
2022-09-20T02:41:53.887Z,99.90
2022-09-20T02:44:34.549Z,99.90
2022-09-20T02:47:01.262Z,99.90
2022-09-20T02:49:48.101Z,99.90
2022-09-20T02:52:25.874Z,99.90
2022-09-20T02:55:10.820Z,99.90
2022-09-20T02:57:43.411Z,99.90
2022-09-20T03:00:14.936Z,99.90
2022-09-20T03:02:52.183Z,99.90
2022-09-20T03:05:21.640Z,99.90
2022-09-20T03:07:54.855Z,99.90
2022-09-20T03:10:36.927Z,99.90
2022-09-20T03:13:10.656Z,99.90
2022-09-20T03:15:46.694Z,99.90
2022-09-20T03:18:33.841Z,99.90
2022-09-20T03:21:22.733Z,99.90
2022-09-20T03:23:49.534Z,99.90
2022-09-20T03:26:19.272Z,99.90
2022-09-20T03:29:00.395Z,99.90
2022-09-20T03:31:27.239Z,99.90
2022-09-20T03:34:09.382Z,99.90
2022-09-20T03:36:54.717Z,99.90
2022-09-20T03:39:48.392Z,99.90
2022-09-20T03:42:23.085Z,99.90
2022-09-20T03:44:56.070Z,99.90
2022-09-20T03:47:42.944Z,99.90
2022-09-20T03:50:15.530Z,99.90
2022-09-20T03:52:47.238Z,99.90
2022-09-20T03:55:23.188Z,99.90
2022-09-20T03:57:52.266Z,99.90
2022-09-20T04:00:38.675Z,99.90
2022-09-20T04:03:26.783Z,99.90
2022-09-20T04:05:53.574Z,99.90
2022-09-20T04:08:40.645Z,99.90
2022-09-20T04:11:41.002Z,99.90
2022-09-20T04:14:18.385Z,99.90
2022-09-20T04:17:00.704Z,99.90
2022-09-20T04:19:35.894Z,99.90
2022-09-20T04:22:03.295Z,99.90
2022-09-20T04:24:33.385Z,99.90
2022-09-20T04:27:09.894Z,99.90
2022-09-20T04:29:38.206Z,99.90
2022-09-20T04:32:15.935Z,99.90
2022-09-20T04:35:08.511Z,99.90
2022-09-20T04:37:36.166Z,99.90
2022-09-20T04:40:06.156Z,99.90
2022-09-20T04:42:38.964Z,99.90
2022-09-20T04:45:08.795Z,99.90
2022-09-20T04:47:37.317Z,99.90
2022-09-20T04:50:19.452Z,99.90
2022-09-20T04:52:46.193Z,99.90
2022-09-20T04:55:39.065Z,99.90
2022-09-20T04:58:24.635Z,99.90
2022-09-20T05:00:57.566Z,99.90
2022-09-20T05:03:31.623Z,99.90
2022-09-20T05:06:07.528Z,99.90
2022-09-20T05:08:43.370Z,99.90
2022-09-20T05:11:27.712Z,99.90
2022-09-20T05:17:08.573Z,99.90
2022-09-20T05:19:38.122Z,99.90
2022-09-20T05:22:24.207Z,99.90
2022-09-20T05:25:00.194Z,99.90
2022-09-20T05:27:38.782Z,99.90
2022-09-20T05:30:08.964Z,99.90
2022-09-20T05:32:52.119Z,99.90
2022-09-20T05:35:20.865Z,99.90
2022-09-20T05:37:54.369Z,99.90
2022-09-20T05:40:30.304Z,99.90
2022-09-20T05:43:03.936Z,99.90
2022-09-20T05:45:49.230Z,99.90
2022-09-20T05:48:18.311Z,99.90
2022-09-20T05:50:55.441Z,99.90
2022-09-20T05:53:25.766Z,99.90
2022-09-20T05:56:11.505Z,99.90
2022-09-20T05:58:58.217Z,99.90
2022-09-20T06:01:41.458Z,99.90
2022-09-20T06:04:20.484Z,99.90
2022-09-20T06:06:47.242Z,99.90
2022-09-20T06:09:26.248Z,99.90
2022-09-20T06:11:53.071Z,99.90
2022-09-20T06:14:38.825Z,99.90
2022-09-20T06:17:10.782Z,99.90
2022-09-20T06:19:47.841Z,99.90
2022-09-20T06:22:15.289Z,99.90
2022-09-20T06:24:47.713Z,99.90
2022-09-20T06:27:16.043Z,99.90
2022-09-20T06:29:43.932Z,99.90
2022-09-20T06:32:10.690Z,99.90
2022-09-20T06:34:37.439Z,99.90
2022-09-20T06:37:41.944Z,99.90
2022-09-20T06:40:27.951Z,99.90
2022-09-20T06:42:55.455Z,99.90
2022-09-20T06:45:22.950Z,99.90
2022-09-20T06:47:53.133Z,99.90
2022-09-20T06:50:20.635Z,99.90
2022-09-20T06:52:47.592Z,99.90
2022-09-20T06:55:19.092Z,99.90
2022-09-20T06:57:46.063Z,99.90
2022-09-20T07:00:16.119Z,99.90
2022-09-20T07:02:43.624Z,99.90
2022-09-20T07:05:16.600Z,99.90
2022-09-20T07:07:44.284Z,99.90
2022-09-20T07:10:11.708Z,99.90
2022-09-20T07:12:38.525Z,99.90
2022-09-20T07:15:06.323Z,99.90
2022-09-20T07:17:33.923Z,99.90
2022-09-20T07:20:00.807Z,99.90
2022-09-20T07:22:28.270Z,99.90
2022-09-20T07:24:55.320Z,99.90
2022-09-20T07:27:22.211Z,99.90
2022-09-20T07:29:49.599Z,99.90
2022-09-20T07:32:17.258Z,99.90
2022-09-20T07:34:47.309Z,99.90
2022-09-20T07:37:14.487Z,99.90
2022-09-20T07:39:41.914Z,99.90
2022-09-20T07:42:08.720Z,99.90
2022-09-20T07:44:35.481Z,99.90
2022-09-20T07:47:02.232Z,99.90
2022-09-20T07:49:31.909Z,99.90
2022-09-20T07:51:58.714Z,99.90
2022-09-20T07:54:28.360Z,99.90
2022-09-20T07:56:55.175Z,99.90
2022-09-20T07:59:21.903Z,99.90
2022-09-20T08:01:48.877Z,99.90
2022-09-20T08:08:00.947Z,99.90
2022-09-20T08:11:00.615Z,99.90
2022-09-20T08:14:41.918Z,99.90
2022-09-20T08:20:53.324Z,99.90
2022-09-20T08:23:32.116Z,99.90
2022-09-20T08:30:10.665Z,99.90
2022-09-20T08:32:55.649Z,99.90
2022-09-20T08:36:47.993Z,99.90
2022-09-20T08:49:11.710Z,99.90
2022-09-20T08:51:41.839Z,99.90
2022-09-20T08:54:34.972Z,99.90
2022-09-20T08:57:22.963Z,99.90
2022-09-20T09:05:55.914Z,99.80
2022-09-20T09:19:12.219Z,98.60
2022-09-20T09:24:16.968Z,95.30
2022-09-20T09:26:50.433Z,93.10
2022-09-20T09:29:20.438Z,91.80
2022-09-20T09:34:38.903Z,91.50
2022-09-20T09:37:05.823Z,88.40
2022-09-20T09:39:40.747Z,86.60
2022-09-20T09:42:20.716Z,80.40
2022-09-20T09:45:00.452Z,75.90
2022-09-20T09:47:31.394Z,75.40
2022-09-20T09:50:01.902Z,72.40
2022-09-20T09:56:01.594Z,70.80
2022-09-20T09:58:54.979Z,73.00
2022-09-20T10:01:42.064Z,72.60
2022-09-20T10:04:17.081Z,71.10
2022-09-20T10:06:50.530Z,69.90
2022-09-20T10:09:21.975Z,69.60
2022-09-20T10:11:58.807Z,72.00
2022-09-20T10:14:25.640Z,66.70
2022-09-20T10:17:01.469Z,64.20
2022-09-20T10:19:43.563Z,63.20
2022-09-20T10:22:24.165Z,60.40
2022-09-20T10:25:00.188Z,62.60
2022-09-20T10:27:29.755Z,59.70
2022-09-20T10:29:59.283Z,56.90
2022-09-20T10:32:27.280Z,57.50
2022-09-20T10:35:02.042Z,56.50
2022-09-20T10:37:31.093Z,54.80
2022-09-20T10:40:11.479Z,55.10
2022-09-20T10:43:16.769Z,55.60
2022-09-20T10:48:48.859Z,56.70
2022-09-20T10:51:27.619Z,54.90
2022-09-20T10:54:08.043Z,52.30
2022-09-20T10:56:39.165Z,50.60
2022-09-20T10:59:16.341Z,54.30
2022-09-20T11:02:08.667Z,54.30
2022-09-20T11:04:38.330Z,54.50
2022-09-20T11:07:23.516Z,54.10
2022-09-20T11:09:55.371Z,52.20
2022-09-20T11:12:31.323Z,52.60
2022-09-20T11:15:11.112Z,52.40
2022-09-20T11:17:47.686Z,52.80
2022-09-20T11:20:45.226Z,54.70
2022-09-20T11:23:28.924Z,53.90
2022-09-20T11:25:57.173Z,51.50
2022-09-20T11:28:40.191Z,53.80
2022-09-20T11:31:48.665Z,52.20
2022-09-20T11:34:24.033Z,55.60
2022-09-20T11:36:59.059Z,55.00
2022-09-20T11:39:29.222Z,52.10
2022-09-20T11:41:56.471Z,52.20
2022-09-20T11:44:23.186Z,50.40
2022-09-20T11:46:50.481Z,51.50
2022-09-20T11:49:21.340Z,51.70
2022-09-20T11:52:06.975Z,49.40
2022-09-20T11:54:39.750Z,51.70
2022-09-20T11:57:08.140Z,51.20
2022-09-20T11:59:35.549Z,53.90
2022-09-20T12:02:03.483Z,51.30
2022-09-20T12:04:33.703Z,51.70
2022-09-20T12:07:03.514Z,51.50
2022-09-20T12:09:35.423Z,53.30
2022-09-20T12:12:22.454Z,50.80
2022-09-20T12:14:55.475Z,49.50
2022-09-20T12:17:48.458Z,49.40
2022-09-20T12:20:35.449Z,48.50
2022-09-20T12:23:21.406Z,48.30
2022-09-20T12:26:00.875Z,48.90
2022-09-20T12:28:44.059Z,48.00
2022-09-20T12:31:37.969Z,50.00
2022-09-20T12:34:04.746Z,47.80
2022-09-20T12:36:36.336Z,47.50
2022-09-20T12:39:06.901Z,46.80
2022-09-20T12:41:52.618Z,45.40
2022-09-20T12:44:38.071Z,45.50
2022-09-20T12:47:04.983Z,44.00
2022-09-20T12:50:02.869Z,45.70
2022-09-20T12:52:48.887Z,44.90
2022-09-20T12:55:30.916Z,44.90
2022-09-20T12:58:03.589Z,44.70
2022-09-20T13:00:32.090Z,44.90
2022-09-20T13:02:59.660Z,46.70
2022-09-20T13:05:32.203Z,47.80
2022-09-20T13:08:20.462Z,48.40
2022-09-20T13:10:50.067Z,49.10
2022-09-20T13:13:27.911Z,51.30
2022-09-20T13:15:55.097Z,52.70
2022-09-20T13:18:23.046Z,54.70
2022-09-20T13:20:51.832Z,55.40
2022-09-20T13:23:28.155Z,55.60
2022-09-20T13:25:57.702Z,57.00
2022-09-20T13:28:24.430Z,55.70
2022-09-20T13:30:51.246Z,55.90
2022-09-20T13:33:22.118Z,57.40
2022-09-20T13:35:50.004Z,56.10
2022-09-20T13:38:22.563Z,57.20
2022-09-20T13:40:49.355Z,57.50
2022-09-20T13:43:34.605Z,57.00
2022-09-20T13:46:11.355Z,57.10
2022-09-20T13:48:38.201Z,58.00
2022-09-20T13:51:14.388Z,58.30
2022-09-20T13:53:42.250Z,58.50
2022-09-20T13:56:10.488Z,58.20
2022-09-20T13:58:40.232Z,57.70
2022-09-20T14:01:09.568Z,57.90
2022-09-20T14:03:36.375Z,57.70
2022-09-20T14:06:04.454Z,59.00
2022-09-20T14:08:31.950Z,60.10
2022-09-20T14:11:17.244Z,59.20
2022-09-20T14:13:44.565Z,59.10
2022-09-20T14:16:11.342Z,58.70
2022-09-20T14:18:39.239Z,59.30
2022-09-20T14:21:06.244Z,59.70
2022-09-20T14:23:33.006Z,60.30
2022-09-20T14:26:18.300Z,60.60
2022-09-20T14:28:45.091Z,62.00
2022-09-20T14:31:15.901Z,63.40
2022-09-20T14:33:43.719Z,63.60
2022-09-20T14:36:12.899Z,62.80
2022-09-20T14:38:39.678Z,63.40
2022-09-20T14:41:06.422Z,63.80
2022-09-20T14:43:33.931Z,63.60
2022-09-20T14:46:02.082Z,64.20
2022-09-20T14:48:33.059Z,64.60
2022-09-20T14:51:18.881Z,64.00
2022-09-20T14:53:46.878Z,63.50
2022-09-20T14:56:14.831Z,64.70
2022-09-20T14:59:00.349Z,63.80
2022-09-20T15:01:27.337Z,63.00
2022-09-20T15:03:54.056Z,63.40
2022-09-20T15:06:20.764Z,63.60
2022-09-20T15:08:47.826Z,66.00
2022-09-20T15:11:15.140Z,69.10
2022-09-20T15:13:42.161Z,70.20
2022-09-20T15:16:09.286Z,71.00
2022-09-20T15:18:37.579Z,70.70
2022-09-20T15:21:06.215Z,71.30
2022-09-20T15:23:33.130Z,70.00
2022-09-20T15:26:00.999Z,70.20
2022-09-20T15:28:28.288Z,70.90
2022-09-20T15:30:55.210Z,70.70
2022-09-20T15:33:22.345Z,70.10
2022-09-20T15:35:49.279Z,70.00
2022-09-20T15:38:16.763Z,69.90
2022-09-20T15:40:44.308Z,69.90
2022-09-20T15:43:12.003Z,71.00
2022-09-20T15:45:49.773Z,70.10
2022-09-20T15:48:21.096Z,68.50
2022-09-20T15:51:07.245Z,69.70
2022-09-20T15:53:39.705Z,70.90
2022-09-20T15:56:21.285Z,70.40
2022-09-20T15:58:48.859Z,70.70
2022-09-20T16:01:16.962Z,71.00
2022-09-20T16:03:45.507Z,71.90
2022-09-20T16:06:13.608Z,73.50
2022-09-20T16:08:41.382Z,72.80
2022-09-20T16:11:08.737Z,73.00
2022-09-20T16:13:39.412Z,71.60
2022-09-20T16:16:07.767Z,72.80
2022-09-20T16:18:54.348Z,73.40
2022-09-20T16:21:21.546Z,73.80
2022-09-20T16:23:49.518Z,78.30
2022-09-20T16:26:16.780Z,79.40
2022-09-20T16:28:47.291Z,81.40
2022-09-20T16:31:34.829Z,81.70
2022-09-20T16:34:02.662Z,82.10
2022-09-20T16:36:29.941Z,83.30
2022-09-20T16:38:57.327Z,85.00
2022-09-20T16:41:25.601Z,86.20
2022-09-20T16:43:52.556Z,84.80
2022-09-20T16:46:22.812Z,86.10
2022-09-20T16:48:53.930Z,87.50
2022-09-20T16:51:22.654Z,87.80
2022-09-20T16:53:49.975Z,88.10
2022-09-20T16:56:21.860Z,89.30
2022-09-20T16:58:48.850Z,90.70
2022-09-20T17:01:16.807Z,90.60
2022-09-20T17:03:44.908Z,87.90
2022-09-20T17:06:11.848Z,87.40
2022-09-20T17:08:40.038Z,87.50
2022-09-20T17:11:08.510Z,87.90
2022-09-20T17:13:35.875Z,88.30
2022-09-20T17:16:03.109Z,89.20
2022-09-20T17:18:29.907Z,89.10
2022-09-20T17:20:56.648Z,89.00
2022-09-20T17:23:23.825Z,90.30
2022-09-20T17:26:00.872Z,90.90
2022-09-20T17:28:27.603Z,91.30
2022-09-20T17:31:00.531Z,91.90
2022-09-20T17:33:29.814Z,92.20
2022-09-20T17:35:58.998Z,92.60
2022-09-20T17:38:26.157Z,93.00
2022-09-20T17:41:08.638Z,92.90
2022-09-20T17:43:35.879Z,93.00
2022-09-20T17:46:08.948Z,93.10
2022-09-20T17:48:36.600Z,93.40
2022-09-20T17:51:03.622Z,92.90
2022-09-20T17:53:33.507Z,93.30
2022-09-20T17:56:00.738Z,93.60
2022-09-20T17:58:27.593Z,93.30
2022-09-20T18:00:58.633Z,93.60
2022-09-20T18:03:25.462Z,94.10
2022-09-20T18:05:52.312Z,94.50
2022-09-20T18:08:19.184Z,94.90
2022-09-20T18:10:55.960Z,94.70
2022-09-20T18:13:22.972Z,95.20
2022-09-20T18:15:49.769Z,95.60
2022-09-20T18:18:16.657Z,95.20
2022-09-20T18:20:43.397Z,95.50
2022-09-20T18:23:10.167Z,96.90
2022-09-20T18:25:56.861Z,97.40
2022-09-20T18:28:23.728Z,97.50
2022-09-20T18:31:00.606Z,98.90
2022-09-20T18:33:28.009Z,99.80
2022-09-20T18:35:59.432Z,99.90
2022-09-20T18:38:26.173Z,99.90
2022-09-20T18:41:00.435Z,99.90
2022-09-20T18:43:28.386Z,99.90
2022-09-20T18:45:55.229Z,99.90
2022-09-20T18:48:24.884Z,99.90
2022-09-20T18:50:58.444Z,99.90
2022-09-20T18:53:26.235Z,99.90
2022-09-20T18:55:53.665Z,99.90
2022-09-20T18:58:20.954Z,99.90
2022-09-20T19:00:48.874Z,99.90
2022-09-20T19:03:22.057Z,99.90
2022-09-20T19:05:49.674Z,99.90
2022-09-20T19:08:34.264Z,99.90
2022-09-20T19:11:02.152Z,99.90
2022-09-20T19:13:32.517Z,99.90
2022-09-20T19:16:18.348Z,99.90
2022-09-20T19:18:51.204Z,99.90
2022-09-20T19:21:22.255Z,99.90
2022-09-20T19:23:49.135Z,99.90
2022-09-20T19:26:21.335Z,99.90
2022-09-20T19:28:52.177Z,99.90
2022-09-20T19:31:23.226Z,99.90
2022-09-20T19:33:50.681Z,99.90
2022-09-20T19:36:17.781Z,99.90
2022-09-20T19:38:53.427Z,99.90
2022-09-20T19:41:32.439Z,99.90
2022-09-20T19:43:59.680Z,99.90
2022-09-20T19:46:32.489Z,99.90
2022-09-20T19:49:00.258Z,99.90
2022-09-20T19:51:26.990Z,99.90
2022-09-20T19:53:55.454Z,99.90
2022-09-20T19:56:26.138Z,99.90
2022-09-20T19:58:53.392Z,99.90
2022-09-20T20:01:22.298Z,99.90
2022-09-20T20:03:49.921Z,99.90
2022-09-20T20:06:19.770Z,99.90
2022-09-20T20:08:50.764Z,99.90
2022-09-20T20:11:18.361Z,99.90
2022-09-20T20:14:04.847Z,99.90
2022-09-20T20:16:47.157Z,99.90
2022-09-20T20:19:30.203Z,99.90
2022-09-20T20:21:58.481Z,99.90
2022-09-20T20:24:26.134Z,99.90
2022-09-20T20:26:52.881Z,99.90
2022-09-20T20:29:19.824Z,99.90
2022-09-20T20:31:46.594Z,99.90
2022-09-20T20:34:16.292Z,99.90
2022-09-20T20:36:44.024Z,99.90
2022-09-20T20:39:11.287Z,99.90
2022-09-20T20:41:39.461Z,99.90
2022-09-20T20:44:06.385Z,99.90
2022-09-20T20:46:34.194Z,99.90
2022-09-20T20:49:01.214Z,99.90
2022-09-20T20:51:28.184Z,99.90
2022-09-20T20:53:54.988Z,99.90
2022-09-20T20:56:22.660Z,99.90
2022-09-20T20:58:49.505Z,99.90
2022-09-20T21:01:17.130Z,99.90
2022-09-20T21:03:46.460Z,99.90
2022-09-20T21:06:13.315Z,99.90
2022-09-20T21:08:40.544Z,99.90
2022-09-20T21:11:08.637Z,99.90
2022-09-20T21:13:35.451Z,99.90
2022-09-20T21:16:03.227Z,99.90
2022-09-20T21:18:29.988Z,99.90
2022-09-20T21:20:56.722Z,99.90
2022-09-20T21:23:23.498Z,99.90
2022-09-20T21:26:00.451Z,99.90
2022-09-20T21:28:27.339Z,99.90
2022-09-20T21:30:59.495Z,99.90
2022-09-20T21:33:33.143Z,99.90
2022-09-20T21:36:02.784Z,99.90
2022-09-20T21:38:29.723Z,99.90
2022-09-20T21:41:04.065Z,99.90
2022-09-20T21:43:30.936Z,99.90
2022-09-20T21:45:58.458Z,99.90
2022-09-20T21:48:26.162Z,99.90
2022-09-20T21:50:53.036Z,99.90
2022-09-20T21:53:19.841Z,99.90
2022-09-20T21:55:46.625Z,99.90
2022-09-20T21:58:13.631Z,99.90
2022-09-20T22:00:40.425Z,99.90
2022-09-20T22:03:07.844Z,99.90
2022-09-20T22:05:34.740Z,99.90
2022-09-20T22:08:02.492Z,99.90
2022-09-20T22:10:29.344Z,99.90
2022-09-20T22:12:56.191Z,99.90
2022-09-20T22:15:22.941Z,99.90
2022-09-20T22:17:49.684Z,99.90
2022-09-20T22:20:16.506Z,99.90
2022-09-20T22:22:43.271Z,99.90
2022-09-20T22:25:10.000Z,99.90
2022-09-20T22:27:36.769Z,99.90
2022-09-20T22:30:05.051Z,99.90
2022-09-20T22:32:32.059Z,99.90
2022-09-20T22:35:00.039Z,99.90
2022-09-20T22:37:26.772Z,99.90
2022-09-20T22:39:53.482Z,99.90
2022-09-20T22:42:20.242Z,99.90
2022-09-20T22:44:47.031Z,99.90
2022-09-20T22:47:13.743Z,99.90
2022-09-20T22:49:40.460Z,99.90
2022-09-20T22:52:07.578Z,99.90
2022-09-20T22:54:35.664Z,99.90
2022-09-20T22:57:02.489Z,99.90
2022-09-20T22:59:29.206Z,99.90
2022-09-20T23:01:55.961Z,99.90
2022-09-20T23:04:23.580Z,99.90
2022-09-20T23:06:56.816Z,99.90
2022-09-20T23:09:24.285Z,99.90
2022-09-20T23:11:51.108Z,99.90
2022-09-20T23:14:18.815Z,99.90
2022-09-20T23:16:45.555Z,99.90
2022-09-20T23:19:12.412Z,99.90
2022-09-20T23:21:39.456Z,99.90
2022-09-20T23:24:07.146Z,99.90
2022-09-20T23:26:34.686Z,99.90
2022-09-20T23:29:05.305Z,99.90
2022-09-20T23:31:32.306Z,99.90
2022-09-20T23:33:59.688Z,99.90
2022-09-20T23:36:27.369Z,99.90
2022-09-20T23:38:54.287Z,99.90
2022-09-20T23:41:21.506Z,99.90
2022-09-20T23:43:48.347Z,99.90
2022-09-20T23:46:16.106Z,99.90
2022-09-20T23:48:42.964Z,99.90
2022-09-20T23:51:10.482Z,99.90
2022-09-20T23:53:37.203Z,99.90
2022-09-20T23:56:04.627Z,99.90
2022-09-20T23:58:31.352Z,99.90
